Time,TemperatureF,DewpointF,PressureIn,WindDirection,WindDirectionDegrees,WindSpeedMPH,WindSpeedGustMPH,Humidity,HourlyPrecipIn,Conditions,Clouds,dailyrainin,SoftwareType,DateUTC
2013-12-05 00:01:00,44.6,43.5,30.17,NE,38,0.0,0.0,96,0.00,,,0.00,meteobridge,2013-12-05 05:01:00,
2013-12-05 00:02:00,44.6,43.5,30.17,NE,38,0.0,0.0,96,0.00,,,0.00,meteobridge,2013-12-05 05:02:00,
2013-12-05 00:03:00,44.8,43.7,30.17,NE,38,0.0,0.0,96,0.00,,,0.00,meteobridge,2013-12-05 05:03:00,
2013-12-05 00:04:00,44.8,43.7,30.17,NE,38,0.0,0.0,96,0.00,,,0.00,meteobridge,2013-12-05 05:04:00,
2013-12-05 00:09:00,44.8,43.7,30.16,NE,38,0.0,0.0,96,0.00,,,0.00,meteobridge,2013-12-05 05:09:00,
2013-12-05 00:14:00,44.8,43.7,30.16,NE,38,0.0,0.0,96,0.00,,,0.00,meteobridge,2013-12-05 05:14:00,
2013-12-05 00:19:00,45.0,43.9,30.16,NE,38,0.0,0.0,96,0.00,,,0.00,meteobridge,2013-12-05 05:19:00,
2013-12-05 00:24:00,45.1,44.4,30.16,NE,38,0.0,0.0,97,0.00,,,0.00,meteobridge,2013-12-05 05:24:00,
2013-12-05 00:29:00,45.3,44.6,30.16,NE,38,0.0,0.0,97,0.00,,,0.00,meteobridge,2013-12-05 05:29:00,
2013-12-05 00:34:00,45.7,45.0,30.16,NE,38,0.0,0.0,97,0.00,,,0.00,meteobridge,2013-12-05 05:34:00,
2013-12-05 00:39:00,45.7,45.0,30.16,NE,38,0.0,0.0,97,0.00,,,0.00,meteobridge,2013-12-05 05:39:00,
2013-12-05 00:45:00,45.9,45.1,30.16,NE,38,0.0,0.0,97,0.00,,,0.00,meteobridge,2013-12-05 05:45:00,
2013-12-05 00:50:00,46.0,45.3,30.16,NE,38,0.0,0.0,97,0.00,,,0.00,meteobridge,2013-12-05 05:50:00,
2013-12-05 00:55:00,46.0,45.3,30.16,NE,38,0.0,0.0,97,0.00,,,0.00,meteobridge,2013-12-05 05:55:00,
2013-12-05 01:00:00,46.2,45.5,30.16,NE,38,0.0,0.0,97,0.00,,,0.00,meteobridge,2013-12-05 06:00:00,
2013-12-05 01:05:00,46.2,45.5,30.15,NE,38,0.0,0.0,97,0.00,,,0.00,meteobridge,2013-12-05 06:05:00,
2013-12-05 01:10:00,46.4,45.7,30.15,NE,38,0.0,0.0,97,0.00,,,0.00,meteobridge,2013-12-05 06:10:00,
2013-12-05 01:15:00,46.6,45.9,30.15,NE,38,0.0,0.0,97,0.00,,,0.00,meteobridge,2013-12-05 06:15:00,
2013-12-05 01:21:00,46.8,46.0,30.15,NE,53,0.0,0.9,97,0.00,,,0.00,meteobridge,2013-12-05 06:21:00,
2013-12-05 01:26:00,47.1,46.4,30.15,NE,53,0.0,0.0,97,0.00,,,0.00,meteobridge,2013-12-05 06:26:00,
2013-12-05 01:31:00,47.5,46.8,30.15,NE,53,0.0,0.0,97,0.00,,,0.00,meteobridge,2013-12-05 06:31:00,
2013-12-05 01:36:00,47.8,46.9,30.14,NE,53,0.0,2.0,97,0.00,,,0.00,meteobridge,2013-12-05 06:36:00,
2013-12-05 01:41:00,48.4,47.5,30.15,NE,53,0.0,0.0,97,0.00,,,0.00,meteobridge,2013-12-05 06:41:00,
2013-12-05 01:46:00,48.6,47.7,30.14,NE,53,0.0,0.0,97,0.00,,,0.00,meteobridge,2013-12-05 06:46:00,
2013-12-05 01:51:00,48.7,47.8,30.15,NE,53,0.0,0.0,97,0.00,,,0.00,meteobridge,2013-12-05 06:51:00,
2013-12-05 01:56:00,48.9,48.0,30.15,NE,53,0.0,0.0,97,0.00,,,0.00,meteobridge,2013-12-05 06:56:00,
2013-12-05 02:01:00,49.5,48.9,30.15,NE,53,0.0,0.0,98,0.00,,,0.00,meteobridge,2013-12-05 07:01:00,
2013-12-05 02:07:00,49.8,49.3,30.15,NE,53,0.0,0.0,98,0.00,,,0.00,meteobridge,2013-12-05 07:07:00,
2013-12-05 02:12:00,50.2,49.6,30.15,NE,53,0.0,0.0,98,0.00,,,0.00,meteobridge,2013-12-05 07:12:00,
2013-12-05 02:17:00,50.2,49.6,30.15,NE,53,0.0,0.0,98,0.00,,,0.00,meteobridge,2013-12-05 07:17:00,
2013-12-05 02:22:00,50.4,49.5,30.15,NE,53,0.0,0.0,97,0.00,,,0.00,meteobridge,2013-12-05 07:22:00,
2013-12-05 02:27:00,50.4,49.8,30.15,NE,53,0.0,0.0,98,0.00,,,0.00,meteobridge,2013-12-05 07:27:00,
2013-12-05 02:32:00,50.4,49.5,30.16,NE,53,0.0,0.0,97,0.00,,,0.00,meteobridge,2013-12-05 07:32:00,
2013-12-05 02:38:00,50.4,49.5,30.15,NE,53,0.0,0.0,97,0.00,,,0.00,meteobridge,2013-12-05 07:38:00,
2013-12-05 02:43:00,50.2,49.3,30.15,NE,53,0.0,0.0,97,0.00,,,0.00,meteobridge,2013-12-05 07:43:00,
2013-12-05 02:48:00,50.0,49.1,30.15,NE,53,0.0,0.0,97,0.00,,,0.00,meteobridge,2013-12-05 07:48:00,
2013-12-05 02:53:00,49.8,48.9,30.15,NE,53,0.0,0.0,97,0.00,,,0.00,meteobridge,2013-12-05 07:53:00,
2013-12-05 02:59:00,49.8,48.9,30.15,NE,53,0.0,0.0,97,0.00,,,0.00,meteobridge,2013-12-05 07:59:00,
2013-12-05 03:04:00,49.8,48.9,30.15,NE,53,0.0,0.0,97,0.00,,,0.00,meteobridge,2013-12-05 08:04:00,
2013-12-05 03:09:00,50.0,49.1,30.15,NE,53,0.0,0.0,97,0.00,,,0.00,meteobridge,2013-12-05 08:09:00,
2013-12-05 03:14:00,50.0,49.1,30.15,NE,53,0.0,0.0,97,0.00,,,0.00,meteobridge,2013-12-05 08:14:00,
2013-12-05 03:19:00,49.8,48.9,30.14,NE,53,0.0,0.0,97,0.00,,,0.00,meteobridge,2013-12-05 08:19:00,
2013-12-05 03:25:00,49.8,48.9,30.14,NE,53,0.0,0.0,97,0.00,,,0.00,meteobridge,2013-12-05 08:25:00,
2013-12-05 03:30:00,49.8,48.9,30.14,NE,53,0.0,0.0,97,0.00,,,0.00,meteobridge,2013-12-05 08:30:00,
2013-12-05 03:35:00,49.8,48.9,30.14,NE,53,0.0,0.0,97,0.00,,,0.00,meteobridge,2013-12-05 08:35:00,
2013-12-05 03:41:00,49.8,48.9,30.14,NE,53,0.0,0.0,97,0.01,,,0.01,meteobridge,2013-12-05 08:41:00,
2013-12-05 03:46:00,49.8,48.9,30.14,NE,53,0.0,0.0,97,0.01,,,0.01,meteobridge,2013-12-05 08:46:00,
2013-12-05 03:51:00,50.2,49.3,30.14,NE,53,0.0,0.0,97,0.01,,,0.01,meteobridge,2013-12-05 08:51:00,
2013-12-05 03:56:00,50.2,49.3,30.14,NE,53,0.0,0.0,97,0.01,,,0.01,meteobridge,2013-12-05 08:56:00,
2013-12-05 04:01:00,50.2,49.3,30.14,NE,53,0.0,0.0,97,0.01,,,0.01,meteobridge,2013-12-05 09:01:00,
2013-12-05 04:06:00,50.2,49.3,30.14,NE,53,0.0,0.0,97,0.01,,,0.01,meteobridge,2013-12-05 09:06:00,
2013-12-05 04:11:00,50.2,49.3,30.14,NE,53,0.0,0.0,97,0.01,,,0.01,meteobridge,2013-12-05 09:11:00,
2013-12-05 04:17:00,50.2,49.3,30.14,NE,53,0.0,0.0,97,0.01,,,0.01,meteobridge,2013-12-05 09:17:00,
2013-12-05 04:22:00,50.2,49.3,30.14,NE,53,0.0,0.0,97,0.01,,,0.01,meteobridge,2013-12-05 09:22:00,
2013-12-05 04:27:00,50.2,49.3,30.14,NE,53,0.0,0.0,97,0.01,,,0.01,meteobridge,2013-12-05 09:27:00,
2013-12-05 04:32:00,50.2,49.3,30.14,NE,53,0.0,0.9,97,0.01,,,0.01,meteobridge,2013-12-05 09:32:00,
2013-12-05 04:37:00,50.2,49.3,30.14,NE,53,0.0,0.0,97,0.01,,,0.01,meteobridge,2013-12-05 09:37:00,
2013-12-05 04:42:00,50.2,49.3,30.14,NE,53,0.0,0.9,97,0.00,,,0.01,meteobridge,2013-12-05 09:42:00,
2013-12-05 04:48:00,50.4,49.5,30.14,WNW,303,0.0,0.9,97,0.00,,,0.01,meteobridge,2013-12-05 09:48:00,
2013-12-05 04:53:00,50.2,49.3,30.13,WNW,303,0.0,0.0,97,0.00,,,0.01,meteobridge,2013-12-05 09:53:00,
2013-12-05 04:58:00,50.2,49.3,30.13,WNW,303,0.0,0.0,97,0.00,,,0.01,meteobridge,2013-12-05 09:58:00,
2013-12-05 05:03:00,50.2,49.3,30.12,WNW,303,0.0,0.0,97,0.00,,,0.01,meteobridge,2013-12-05 10:03:00,
2013-12-05 05:08:00,50.2,49.3,30.12,WNW,303,0.0,0.0,97,0.00,,,0.01,meteobridge,2013-12-05 10:08:00,
2013-12-05 05:13:00,50.2,49.3,30.12,WNW,303,0.0,0.0,97,0.00,,,0.01,meteobridge,2013-12-05 10:13:00,
2013-12-05 05:18:00,50.2,49.3,30.13,WNW,303,0.0,0.0,97,0.00,,,0.01,meteobridge,2013-12-05 10:18:00,
2013-12-05 05:23:00,50.2,49.3,30.13,WNW,303,0.0,0.0,97,0.00,,,0.01,meteobridge,2013-12-05 10:23:00,
2013-12-05 05:28:00,50.2,49.3,30.13,WNW,303,0.0,0.0,97,0.00,,,0.01,meteobridge,2013-12-05 10:28:00,
2013-12-05 05:33:00,50.2,49.3,30.14,WNW,303,0.0,0.0,97,0.00,,,0.01,meteobridge,2013-12-05 10:33:00,
2013-12-05 05:39:00,50.2,49.3,30.14,WNW,303,0.0,0.0,97,0.00,,,0.01,meteobridge,2013-12-05 10:39:00,
2013-12-05 05:44:00,50.0,49.1,30.13,WNW,303,0.0,0.0,97,0.00,,,0.01,meteobridge,2013-12-05 10:44:00,
2013-12-05 05:50:00,50.0,49.1,30.13,WNW,303,0.0,0.0,97,0.00,,,0.01,meteobridge,2013-12-05 10:50:00,
2013-12-05 05:55:00,49.8,48.9,30.13,WNW,303,0.0,0.0,97,0.00,,,0.01,meteobridge,2013-12-05 10:55:00,
2013-12-05 06:00:00,50.0,49.1,30.12,WNW,303,0.0,0.0,97,0.00,,,0.01,meteobridge,2013-12-05 11:00:00,
2013-12-05 06:05:00,50.0,49.1,30.12,WNW,303,0.0,0.0,97,0.00,,,0.01,meteobridge,2013-12-05 11:05:00,
2013-12-05 06:10:00,49.8,48.9,30.11,WNW,303,0.0,0.0,97,0.00,,,0.01,meteobridge,2013-12-05 11:10:00,
2013-12-05 06:15:00,49.8,48.9,30.11,WNW,303,0.0,0.9,97,0.00,,,0.01,meteobridge,2013-12-05 11:15:00,
2013-12-05 06:20:00,49.8,48.9,30.11,WNW,303,0.0,0.0,97,0.00,,,0.01,meteobridge,2013-12-05 11:20:00,
2013-12-05 06:25:00,50.0,49.1,30.11,WNW,303,0.0,0.0,97,0.00,,,0.01,meteobridge,2013-12-05 11:25:00,
2013-12-05 06:31:00,50.2,49.3,30.11,WNW,303,0.0,0.0,97,0.00,,,0.01,meteobridge,2013-12-05 11:31:00,
2013-12-05 06:36:00,50.2,49.3,30.12,WNW,303,0.0,0.9,97,0.00,,,0.01,meteobridge,2013-12-05 11:36:00,
2013-12-05 06:41:00,50.5,50.0,30.12,WNW,303,2.9,2.9,98,0.00,,,0.01,meteobridge,2013-12-05 11:41:00,
2013-12-05 06:46:00,50.5,49.6,30.12,WNW,303,0.0,0.0,97,0.00,,,0.01,meteobridge,2013-12-05 11:46:00,
2013-12-05 06:51:00,50.5,49.6,30.12,WNW,303,0.0,0.0,97,0.00,,,0.01,meteobridge,2013-12-05 11:51:00,
2013-12-05 06:57:00,50.5,49.6,30.12,WNW,303,0.0,0.0,97,0.00,,,0.01,meteobridge,2013-12-05 11:57:00,
2013-12-05 07:02:00,50.5,49.6,30.12,WNW,303,0.0,0.0,97,0.00,,,0.01,meteobridge,2013-12-05 12:02:00,
2013-12-05 07:07:00,50.4,49.5,30.13,WNW,303,0.0,0.0,97,0.00,,,0.01,meteobridge,2013-12-05 12:07:00,
2013-12-05 07:12:00,50.5,49.6,30.13,WNW,303,0.0,0.0,97,0.00,,,0.01,meteobridge,2013-12-05 12:12:00,
2013-12-05 07:17:00,50.4,49.5,30.13,WNW,303,0.0,0.0,97,0.00,,,0.01,meteobridge,2013-12-05 12:17:00,
2013-12-05 07:22:00,50.4,49.5,30.13,WNW,303,0.0,0.0,97,0.00,,,0.01,meteobridge,2013-12-05 12:22:00,
2013-12-05 07:27:00,50.4,49.5,30.13,WNW,303,0.0,0.0,97,0.00,,,0.01,meteobridge,2013-12-05 12:27:00,
2013-12-05 07:32:00,50.4,49.5,30.14,WNW,303,0.0,0.0,97,0.00,,,0.01,meteobridge,2013-12-05 12:32:00,
2013-12-05 07:37:00,50.5,49.6,30.14,WNW,303,0.0,0.0,97,0.00,,,0.01,meteobridge,2013-12-05 12:37:00,
2013-12-05 07:43:00,50.5,49.6,30.14,WNW,303,0.0,0.0,97,0.00,,,0.01,meteobridge,2013-12-05 12:43:00,
2013-12-05 07:48:00,50.5,49.6,30.14,WNW,303,0.0,0.0,97,0.00,,,0.01,meteobridge,2013-12-05 12:48:00,
2013-12-05 07:53:00,50.5,49.6,30.14,WNW,303,0.0,0.0,97,0.00,,,0.01,meteobridge,2013-12-05 12:53:00,
2013-12-05 07:58:00,50.7,49.8,30.14,WNW,303,0.0,0.0,97,0.00,,,0.01,meteobridge,2013-12-05 12:58:00,
2013-12-05 08:04:00,50.9,50.4,30.14,WNW,303,0.0,0.0,98,0.00,,,0.01,meteobridge,2013-12-05 13:04:00,
2013-12-05 08:09:00,51.1,50.5,30.13,WNW,303,0.0,0.0,98,0.00,,,0.01,meteobridge,2013-12-05 13:09:00,
2013-12-05 08:14:00,51.1,50.5,30.13,WNW,303,0.0,0.0,98,0.00,,,0.01,meteobridge,2013-12-05 13:14:00,
2013-12-05 08:19:00,51.3,50.7,30.12,WNW,303,0.0,0.0,98,0.00,,,0.01,meteobridge,2013-12-05 13:19:00,
2013-12-05 08:24:00,51.3,50.7,30.12,WNW,303,0.0,0.0,98,0.00,,,0.01,meteobridge,2013-12-05 13:24:00,
2013-12-05 08:29:00,51.4,50.9,30.12,WNW,303,0.0,0.0,98,0.00,,,0.01,meteobridge,2013-12-05 13:29:00,
2013-12-05 08:34:00,51.6,51.1,30.12,WNW,303,0.0,0.9,98,0.00,,,0.01,meteobridge,2013-12-05 13:34:00,
2013-12-05 08:39:00,52.0,51.4,30.13,WNW,303,0.0,0.0,98,0.00,,,0.01,meteobridge,2013-12-05 13:39:00,
2013-12-05 08:45:00,52.2,51.6,30.13,WNW,303,0.0,0.0,98,0.00,,,0.01,meteobridge,2013-12-05 13:45:00,
2013-12-05 08:50:00,52.3,51.8,30.13,WNW,303,0.0,0.9,98,0.00,,,0.01,meteobridge,2013-12-05 13:50:00,
2013-12-05 08:55:00,52.9,52.3,30.13,WNW,303,0.0,0.0,98,0.00,,,0.01,meteobridge,2013-12-05 13:55:00,
2013-12-05 09:00:00,53.2,52.7,30.13,WNW,303,0.0,2.0,98,0.00,,,0.01,meteobridge,2013-12-05 14:00:00,
2013-12-05 09:06:00,53.4,52.9,30.13,WNW,303,0.0,0.0,98,0.00,,,0.01,meteobridge,2013-12-05 14:06:00,
2013-12-05 09:11:00,53.8,53.2,30.14,WNW,303,0.0,0.9,98,0.00,,,0.01,meteobridge,2013-12-05 14:11:00,
2013-12-05 09:16:00,54.0,53.4,30.13,WNW,302,0.0,2.0,98,0.00,,,0.01,meteobridge,2013-12-05 14:16:00,
2013-12-05 09:21:00,54.1,53.6,30.13,WNW,302,0.0,0.9,98,0.00,,,0.01,meteobridge,2013-12-05 14:21:00,
2013-12-05 09:26:00,54.1,53.6,30.13,South,171,0.0,0.9,98,0.00,,,0.01,meteobridge,2013-12-05 14:26:00,
2013-12-05 09:31:00,54.5,54.0,30.13,South,171,0.9,2.0,98,0.00,,,0.01,meteobridge,2013-12-05 14:31:00,
2013-12-05 09:37:00,54.7,54.1,30.13,South,171,0.0,0.9,98,0.00,,,0.01,meteobridge,2013-12-05 14:37:00,
2013-12-05 09:42:00,54.9,54.3,30.13,South,174,2.0,6.0,98,0.00,,,0.01,meteobridge,2013-12-05 14:42:00,
2013-12-05 09:47:00,55.0,54.5,30.13,South,174,0.9,0.9,98,0.00,,,0.01,meteobridge,2013-12-05 14:47:00,
2013-12-05 09:52:00,55.4,54.9,30.13,South,174,0.0,0.9,98,0.00,,,0.01,meteobridge,2013-12-05 14:52:00,
2013-12-05 09:57:00,55.8,55.2,30.12,SSE,166,0.0,4.9,98,0.00,,,0.01,meteobridge,2013-12-05 14:57:00,
2013-12-05 10:02:00,55.9,55.4,30.12,SSE,168,4.9,4.9,98,0.00,,,0.01,meteobridge,2013-12-05 15:02:00,
2013-12-05 10:07:00,55.9,55.4,30.13,SW,224,2.9,4.9,98,0.00,,,0.01,meteobridge,2013-12-05 15:07:00,
2013-12-05 10:12:00,55.9,55.4,30.13,SW,218,0.0,2.0,98,0.00,,,0.01,meteobridge,2013-12-05 15:12:00,
2013-12-05 10:17:00,56.1,55.6,30.13,South,186,0.0,4.9,98,0.00,,,0.01,meteobridge,2013-12-05 15:17:00,
2013-12-05 10:22:00,56.5,55.9,30.13,SW,221,0.9,6.0,98,0.00,,,0.01,meteobridge,2013-12-05 15:22:00,
2013-12-05 10:28:00,56.7,56.1,30.12,South,173,0.0,4.0,98,0.00,,,0.01,meteobridge,2013-12-05 15:28:00,
2013-12-05 10:33:00,56.8,56.3,30.12,South,173,0.9,2.0,98,0.00,,,0.01,meteobridge,2013-12-05 15:33:00,
2013-12-05 10:38:00,57.0,56.5,30.12,ESE,123,4.0,4.0,98,0.00,,,0.01,meteobridge,2013-12-05 15:38:00,
2013-12-05 10:43:00,57.0,56.5,30.12,SSW,203,0.9,6.0,98,0.00,,,0.01,meteobridge,2013-12-05 15:43:00,
2013-12-05 10:48:00,57.2,56.3,30.12,SSE,159,4.0,4.0,97,0.00,,,0.01,meteobridge,2013-12-05 15:48:00,
2013-12-05 10:53:00,57.6,56.7,30.11,SSE,156,2.0,4.9,97,0.00,,,0.01,meteobridge,2013-12-05 15:53:00,
2013-12-05 10:58:00,57.6,56.5,30.11,SSE,167,2.0,4.9,96,0.00,,,0.01,meteobridge,2013-12-05 15:58:00,
2013-12-05 11:03:00,57.7,56.7,30.11,SSW,196,2.0,4.9,96,0.00,,,0.01,meteobridge,2013-12-05 16:03:00,
2013-12-05 11:08:00,57.9,56.1,30.11,SSE,154,0.0,2.0,94,0.00,,,0.01,meteobridge,2013-12-05 16:08:00,
2013-12-05 11:13:00,58.3,56.3,30.11,South,186,4.9,6.9,93,0.00,,,0.01,meteobridge,2013-12-05 16:13:00,
2013-12-05 11:18:00,58.5,56.5,30.11,South,182,2.9,4.9,93,0.00,,,0.01,meteobridge,2013-12-05 16:18:00,
2013-12-05 11:23:00,58.6,56.3,30.10,SSW,202,2.9,8.1,92,0.00,,,0.01,meteobridge,2013-12-05 16:23:00,
2013-12-05 11:28:00,58.8,56.1,30.10,South,185,2.0,6.0,91,0.00,,,0.01,meteobridge,2013-12-05 16:28:00,
2013-12-05 11:33:00,59.0,56.3,30.09,SE,128,2.0,6.0,91,0.00,,,0.01,meteobridge,2013-12-05 16:33:00,
2013-12-05 11:38:00,59.2,56.3,30.09,SSW,192,6.0,6.9,90,0.00,,,0.01,meteobridge,2013-12-05 16:38:00,
2013-12-05 11:43:00,59.4,56.1,30.09,SSW,193,4.9,8.1,89,0.00,,,0.01,meteobridge,2013-12-05 16:43:00,
2013-12-05 11:48:00,59.4,56.1,30.09,SW,221,4.0,4.9,89,0.00,,,0.01,meteobridge,2013-12-05 16:48:00,
2013-12-05 11:53:00,59.5,55.9,30.09,SSW,209,4.9,8.1,88,0.00,,,0.01,meteobridge,2013-12-05 16:53:00,
2013-12-05 11:58:00,59.7,55.8,30.08,SW,236,2.9,8.1,87,0.00,,,0.01,meteobridge,2013-12-05 16:58:00,
2013-12-05 12:04:00,59.9,55.9,30.08,SSW,192,6.0,6.0,87,0.00,,,0.01,meteobridge,2013-12-05 17:04:00,
2013-12-05 12:09:00,60.1,56.1,30.08,South,190,2.9,4.9,87,0.00,,,0.01,meteobridge,2013-12-05 17:09:00,
2013-12-05 12:14:00,60.1,55.9,30.07,SW,223,2.9,4.9,86,0.00,,,0.01,meteobridge,2013-12-05 17:14:00,
2013-12-05 12:19:00,60.3,56.1,30.07,ESE,110,0.9,13.0,86,0.00,,,0.01,meteobridge,2013-12-05 17:19:00,
2013-12-05 12:24:00,60.3,56.1,30.07,South,175,8.9,8.9,86,0.00,,,0.01,meteobridge,2013-12-05 17:24:00,
2013-12-05 12:29:00,60.4,55.9,30.06,SSW,210,2.9,8.1,85,0.00,,,0.01,meteobridge,2013-12-05 17:29:00,
2013-12-05 12:34:00,60.4,55.9,30.06,SSE,163,2.0,6.0,85,0.00,,,0.01,meteobridge,2013-12-05 17:34:00,
2013-12-05 12:39:00,60.4,55.6,30.05,SW,223,4.0,8.1,84,0.00,,,0.01,meteobridge,2013-12-05 17:39:00,
2013-12-05 12:44:00,60.6,56.1,30.05,SE,143,0.0,6.9,85,0.00,,,0.01,meteobridge,2013-12-05 17:44:00,
2013-12-05 12:49:00,61.0,56.5,30.05,SSE,156,2.0,6.9,85,0.00,,,0.01,meteobridge,2013-12-05 17:49:00,
2013-12-05 12:54:00,61.3,56.5,30.04,SSE,155,0.0,12.1,84,0.00,,,0.01,meteobridge,2013-12-05 17:54:00,
2013-12-05 12:59:00,61.2,56.3,30.04,SSE,147,4.0,8.9,84,0.00,,,0.01,meteobridge,2013-12-05 17:59:00,
2013-12-05 13:04:00,61.2,56.3,30.03,South,175,4.9,11.0,84,0.00,,,0.01,meteobridge,2013-12-05 18:04:00,
2013-12-05 13:09:00,61.2,56.3,30.03,South,188,2.0,4.9,84,0.00,,,0.01,meteobridge,2013-12-05 18:09:00,
2013-12-05 13:14:00,61.2,56.3,30.03,SE,146,2.0,8.1,84,0.00,,,0.01,meteobridge,2013-12-05 18:14:00,
2013-12-05 13:19:00,61.2,55.9,30.03,SE,145,8.9,8.9,83,0.00,,,0.01,meteobridge,2013-12-05 18:19:00,
2013-12-05 13:24:00,61.0,56.1,30.04,SSW,211,4.0,6.0,84,0.00,,,0.01,meteobridge,2013-12-05 18:24:00,
2013-12-05 13:29:00,61.0,56.5,30.03,South,175,4.0,6.0,85,0.00,,,0.01,meteobridge,2013-12-05 18:29:00,
2013-12-05 13:34:00,61.2,56.7,30.03,South,183,2.0,8.1,85,0.00,,,0.01,meteobridge,2013-12-05 18:34:00,
2013-12-05 13:39:00,61.3,56.8,30.03,SSE,160,2.0,4.9,85,0.00,,,0.01,meteobridge,2013-12-05 18:39:00,
2013-12-05 13:44:00,61.3,56.5,30.02,South,169,2.0,4.9,84,0.00,,,0.01,meteobridge,2013-12-05 18:44:00,
2013-12-05 13:49:00,61.5,57.0,30.02,SW,214,2.9,4.9,85,0.00,,,0.01,meteobridge,2013-12-05 18:49:00,
2013-12-05 13:54:00,61.7,56.8,30.03,SSW,208,2.9,4.0,84,0.00,,,0.01,meteobridge,2013-12-05 18:54:00,
2013-12-05 13:59:00,61.7,56.8,30.03,West,269,0.9,8.9,84,0.00,,,0.01,meteobridge,2013-12-05 18:59:00,
2013-12-05 14:04:00,61.7,56.8,30.03,South,170,2.0,6.0,84,0.00,,,0.01,meteobridge,2013-12-05 19:04:00,
2013-12-05 14:09:00,61.7,56.8,30.03,SSW,194,4.0,4.9,84,0.00,,,0.01,meteobridge,2013-12-05 19:09:00,
2013-12-05 14:14:00,61.5,56.7,30.03,South,181,2.9,4.9,84,0.00,,,0.01,meteobridge,2013-12-05 19:14:00,
2013-12-05 14:20:00,61.5,56.7,30.03,WSW,242,2.0,4.0,84,0.00,,,0.01,meteobridge,2013-12-05 19:20:00,
2013-12-05 14:25:00,61.3,56.8,30.03,South,170,4.0,8.9,85,0.00,,,0.01,meteobridge,2013-12-05 19:25:00,
2013-12-05 14:30:00,61.3,56.8,30.03,SSW,202,0.9,2.9,85,0.00,,,0.01,meteobridge,2013-12-05 19:30:00,
2013-12-05 14:35:00,61.2,56.7,30.02,South,176,0.9,4.0,85,0.00,,,0.01,meteobridge,2013-12-05 19:35:00,
2013-12-05 14:40:00,61.0,56.5,30.02,South,169,0.0,4.0,85,0.00,,,0.01,meteobridge,2013-12-05 19:40:00,
2013-12-05 14:45:00,60.8,56.3,30.03,South,169,0.0,2.0,85,0.00,,,0.01,meteobridge,2013-12-05 19:45:00,
2013-12-05 14:50:00,60.6,56.1,30.02,South,169,0.0,2.0,85,0.00,,,0.01,meteobridge,2013-12-05 19:50:00,
2013-12-05 14:55:00,60.6,56.1,30.02,SSE,167,0.0,0.9,85,0.00,,,0.01,meteobridge,2013-12-05 19:55:00,
2013-12-05 15:00:00,60.4,56.3,30.02,SSE,167,0.0,2.0,86,0.00,,,0.01,meteobridge,2013-12-05 20:00:00,
2013-12-05 15:05:00,60.3,56.1,30.03,SSE,167,0.0,0.9,86,0.00,,,0.01,meteobridge,2013-12-05 20:05:00,
2013-12-05 15:11:00,60.3,56.1,30.03,SSE,167,0.0,0.9,86,0.00,,,0.01,meteobridge,2013-12-05 20:11:00,
2013-12-05 15:16:00,60.1,55.9,30.03,SSE,167,0.9,2.0,86,0.00,,,0.01,meteobridge,2013-12-05 20:16:00,
2013-12-05 15:21:00,59.7,55.6,30.03,SSE,167,0.9,4.9,86,0.00,,,0.01,meteobridge,2013-12-05 20:21:00,
2013-12-05 15:26:00,59.4,55.2,30.03,SSE,167,0.0,0.9,86,0.00,,,0.01,meteobridge,2013-12-05 20:26:00,
2013-12-05 15:31:00,59.2,55.0,30.03,SSE,167,0.9,2.0,86,0.00,,,0.01,meteobridge,2013-12-05 20:31:00,
2013-12-05 15:36:00,58.8,54.7,30.03,SSE,167,0.0,0.0,86,0.00,,,0.01,meteobridge,2013-12-05 20:36:00,
2013-12-05 15:41:00,58.6,54.9,30.03,SSE,167,0.0,0.9,87,0.00,,,0.01,meteobridge,2013-12-05 20:41:00,
2013-12-05 15:47:00,58.6,54.9,30.03,SSE,167,0.0,0.0,87,0.00,,,0.01,meteobridge,2013-12-05 20:47:00,
2013-12-05 15:52:00,58.5,54.9,30.03,SSE,167,0.0,0.9,88,0.00,,,0.01,meteobridge,2013-12-05 20:52:00,
2013-12-05 15:57:00,58.5,54.9,30.03,SSE,167,0.0,0.9,88,0.00,,,0.01,meteobridge,2013-12-05 20:57:00,
2013-12-05 16:02:00,58.5,54.9,30.04,SSE,167,0.0,0.0,88,0.00,,,0.01,meteobridge,2013-12-05 21:02:00,
2013-12-05 16:07:00,58.5,54.9,30.04,SSE,167,0.0,0.0,88,0.00,,,0.01,meteobridge,2013-12-05 21:07:00,
2013-12-05 16:12:00,58.5,54.9,30.04,SSE,167,0.0,0.9,88,0.00,,,0.01,meteobridge,2013-12-05 21:12:00,
2013-12-05 16:17:00,58.5,55.2,30.04,South,174,0.0,2.0,89,0.00,,,0.01,meteobridge,2013-12-05 21:17:00,
2013-12-05 16:22:00,58.5,55.2,30.04,South,175,0.0,2.0,89,0.00,,,0.01,meteobridge,2013-12-05 21:22:00,
2013-12-05 16:27:00,58.3,54.7,30.04,South,174,0.9,2.0,88,0.00,,,0.01,meteobridge,2013-12-05 21:27:00,
2013-12-05 16:32:00,58.1,54.5,30.04,South,174,2.0,2.0,88,0.00,,,0.01,meteobridge,2013-12-05 21:32:00,
2013-12-05 16:38:00,57.9,54.3,30.04,South,174,0.0,0.9,88,0.00,,,0.01,meteobridge,2013-12-05 21:38:00,
2013-12-05 16:43:00,57.7,54.1,30.04,South,174,0.0,0.0,88,0.00,,,0.01,meteobridge,2013-12-05 21:43:00,
2013-12-05 16:48:00,57.7,54.5,30.04,South,174,0.0,0.9,89,0.00,,,0.01,meteobridge,2013-12-05 21:48:00,
2013-12-05 16:53:00,57.7,54.5,30.04,South,174,0.0,0.0,89,0.00,,,0.01,meteobridge,2013-12-05 21:53:00,
2013-12-05 16:58:00,57.6,54.3,30.04,South,174,0.0,0.0,89,0.00,,,0.01,meteobridge,2013-12-05 21:58:00,
2013-12-05 17:03:00,57.6,54.7,30.04,South,174,0.0,2.0,90,0.00,,,0.01,meteobridge,2013-12-05 22:03:00,
2013-12-05 17:09:00,57.6,54.7,30.04,South,174,0.0,2.0,90,0.00,,,0.01,meteobridge,2013-12-05 22:09:00,
2013-12-05 17:14:00,57.4,54.5,30.04,South,177,0.9,4.9,90,0.00,,,0.01,meteobridge,2013-12-05 22:14:00,
2013-12-05 17:19:00,57.4,54.5,30.04,South,177,0.0,0.9,90,0.00,,,0.01,meteobridge,2013-12-05 22:19:00,
2013-12-05 17:24:00,57.2,54.3,30.04,SW,215,2.0,4.0,90,0.00,,,0.01,meteobridge,2013-12-05 22:24:00,
2013-12-05 17:29:00,57.4,54.9,30.04,SSW,213,0.0,2.0,91,0.00,,,0.01,meteobridge,2013-12-05 22:29:00,
2013-12-05 17:34:00,57.4,54.5,30.04,SSW,213,0.9,0.9,90,0.00,,,0.01,meteobridge,2013-12-05 22:34:00,
2013-12-05 17:39:00,57.4,54.5,30.04,SSW,213,0.9,2.0,90,0.00,,,0.01,meteobridge,2013-12-05 22:39:00,
2013-12-05 17:45:00,57.4,54.5,30.04,South,173,0.0,4.0,90,0.00,,,0.01,meteobridge,2013-12-05 22:45:00,
2013-12-05 17:50:00,57.4,54.9,30.04,South,173,0.0,0.0,91,0.00,,,0.01,meteobridge,2013-12-05 22:50:00,
2013-12-05 17:55:00,57.2,54.7,30.04,South,173,0.9,2.0,91,0.00,,,0.01,meteobridge,2013-12-05 22:55:00,
2013-12-05 18:00:00,57.2,54.7,30.04,South,173,0.0,0.9,91,0.00,,,0.01,meteobridge,2013-12-05 23:00:00,
2013-12-05 18:05:00,57.2,54.7,30.04,South,173,0.0,0.0,91,0.00,,,0.01,meteobridge,2013-12-05 23:05:00,
2013-12-05 18:10:00,57.0,54.5,30.04,South,173,0.0,0.0,91,0.00,,,0.01,meteobridge,2013-12-05 23:10:00,
2013-12-05 18:15:00,57.0,54.5,30.04,South,173,0.0,0.0,91,0.00,,,0.01,meteobridge,2013-12-05 23:15:00,
2013-12-05 18:21:00,57.0,54.5,30.04,South,173,0.0,0.9,91,0.00,,,0.01,meteobridge,2013-12-05 23:21:00,
2013-12-05 18:26:00,56.8,54.3,30.05,South,173,0.0,0.0,91,0.00,,,0.01,meteobridge,2013-12-05 23:26:00,
2013-12-05 18:31:00,56.8,54.3,30.05,South,173,0.0,0.9,91,0.00,,,0.01,meteobridge,2013-12-05 23:31:00,
2013-12-05 18:36:00,56.8,54.3,30.05,South,173,0.0,0.0,91,0.00,,,0.01,meteobridge,2013-12-05 23:36:00,
2013-12-05 18:41:00,56.7,54.1,30.05,South,173,0.9,0.9,91,0.00,,,0.01,meteobridge,2013-12-05 23:41:00,
2013-12-05 18:46:00,56.7,54.1,30.05,South,173,0.0,0.0,91,0.00,,,0.01,meteobridge,2013-12-05 23:46:00,
2013-12-05 18:51:00,56.5,54.0,30.05,South,173,0.0,0.9,91,0.00,,,0.01,meteobridge,2013-12-05 23:51:00,
2013-12-05 18:56:00,56.5,54.0,30.05,South,173,0.0,0.9,91,0.00,,,0.01,meteobridge,2013-12-05 23:56:00,
2013-12-05 19:02:00,56.1,53.8,30.05,South,173,0.0,0.0,92,0.00,,,0.01,meteobridge,2013-12-06 00:02:00,
2013-12-05 19:07:00,56.1,53.8,30.04,South,173,0.9,2.0,92,0.00,,,0.01,meteobridge,2013-12-06 00:07:00,
2013-12-05 19:12:00,55.9,53.6,30.04,South,172,2.0,4.0,92,0.00,,,0.01,meteobridge,2013-12-06 00:12:00,
2013-12-05 19:17:00,55.8,53.8,30.03,SSE,161,2.0,4.0,93,0.00,,,0.01,meteobridge,2013-12-06 00:17:00,
2013-12-05 19:22:00,55.8,53.8,30.04,South,173,2.0,4.9,93,0.00,,,0.01,meteobridge,2013-12-06 00:22:00,
2013-12-05 19:27:00,55.6,53.6,30.04,SE,134,0.0,4.0,93,0.00,,,0.01,meteobridge,2013-12-06 00:27:00,
2013-12-05 19:32:00,55.6,54.0,30.03,SSE,163,2.0,2.0,94,0.00,,,0.01,meteobridge,2013-12-06 00:32:00,
2013-12-05 19:37:00,55.4,53.8,30.04,SSE,161,0.0,2.0,94,0.00,,,0.01,meteobridge,2013-12-06 00:37:00,
2013-12-05 19:42:00,55.4,53.8,30.04,SSE,161,0.0,0.0,94,0.00,,,0.01,meteobridge,2013-12-06 00:42:00,
2013-12-05 19:48:00,55.2,53.6,30.04,SSE,161,0.0,0.0,94,0.00,,,0.01,meteobridge,2013-12-06 00:48:00,
2013-12-05 19:53:00,55.2,53.8,30.04,SSE,161,0.9,2.0,95,0.00,,,0.01,meteobridge,2013-12-06 00:53:00,
2013-12-05 19:58:00,55.4,54.0,30.04,SSE,161,0.9,0.9,95,0.00,,,0.01,meteobridge,2013-12-06 00:58:00,
2013-12-05 20:03:00,55.2,53.8,30.04,SSE,161,0.0,0.0,95,0.00,,,0.01,meteobridge,2013-12-06 01:03:00,
2013-12-05 20:08:00,55.2,53.8,30.04,SSE,161,0.0,0.9,95,0.00,,,0.01,meteobridge,2013-12-06 01:08:00,
2013-12-05 20:13:00,55.2,53.8,30.04,SSE,161,0.0,0.0,95,0.00,,,0.01,meteobridge,2013-12-06 01:13:00,
2013-12-05 20:19:00,55.2,53.8,30.04,SSE,161,0.0,0.0,95,0.00,,,0.01,meteobridge,2013-12-06 01:19:00,
2013-12-05 20:24:00,55.2,53.8,30.04,SSE,161,0.0,0.9,95,0.00,,,0.01,meteobridge,2013-12-06 01:24:00,
2013-12-05 20:29:00,55.0,53.6,30.04,SSE,161,0.0,0.0,95,0.00,,,0.01,meteobridge,2013-12-06 01:29:00,
2013-12-05 20:34:00,55.0,53.6,30.04,SSE,161,0.0,0.9,95,0.00,,,0.01,meteobridge,2013-12-06 01:34:00,
2013-12-05 20:39:00,54.9,53.4,30.03,SSE,161,0.9,4.9,95,0.00,,,0.01,meteobridge,2013-12-06 01:39:00,
2013-12-05 20:44:00,54.7,53.2,30.03,SSE,161,2.0,4.0,95,0.00,,,0.01,meteobridge,2013-12-06 01:44:00,
2013-12-05 20:50:00,54.5,53.1,30.03,SSE,161,0.9,4.0,95,0.00,,,0.01,meteobridge,2013-12-06 01:50:00,
2013-12-05 20:55:00,54.3,52.9,30.03,SSE,161,0.9,4.0,95,0.00,,,0.01,meteobridge,2013-12-06 01:55:00,
2013-12-05 21:00:00,54.1,53.1,30.03,SSE,161,0.0,2.0,96,0.00,,,0.01,meteobridge,2013-12-06 02:00:00,
2013-12-05 21:05:00,54.1,53.1,30.03,SSE,161,0.0,0.9,96,0.00,,,0.01,meteobridge,2013-12-06 02:05:00,
2013-12-05 21:10:00,54.1,53.1,30.03,SSE,163,0.9,4.0,96,0.00,,,0.01,meteobridge,2013-12-06 02:10:00,
2013-12-05 21:15:00,54.0,52.9,30.03,SSE,163,0.9,0.9,96,0.00,,,0.01,meteobridge,2013-12-06 02:15:00,
2013-12-05 21:20:00,54.0,52.9,30.03,SSE,163,0.0,2.0,96,0.00,,,0.01,meteobridge,2013-12-06 02:20:00,
2013-12-05 21:25:00,53.8,52.7,30.03,SSE,163,0.0,2.0,96,0.00,,,0.01,meteobridge,2013-12-06 02:25:00,
2013-12-05 21:31:00,53.8,52.7,30.03,SSE,163,0.0,0.0,96,0.00,,,0.01,meteobridge,2013-12-06 02:31:00,
2013-12-05 21:36:00,53.6,52.5,30.03,SSE,163,0.0,0.0,96,0.00,,,0.01,meteobridge,2013-12-06 02:36:00,
2013-12-05 21:41:00,53.4,52.3,30.03,SSE,163,0.0,0.9,96,0.00,,,0.01,meteobridge,2013-12-06 02:41:00,
2013-12-05 21:46:00,53.4,52.3,30.02,SSE,156,0.9,2.0,96,0.00,,,0.01,meteobridge,2013-12-06 02:46:00,
2013-12-05 21:51:00,53.4,52.3,30.02,SSE,156,4.0,4.9,96,0.00,,,0.01,meteobridge,2013-12-06 02:51:00,
2013-12-05 21:56:00,53.4,52.3,30.03,SSE,156,4.0,4.0,96,0.00,,,0.01,meteobridge,2013-12-06 02:56:00,
2013-12-05 22:01:00,53.2,52.2,30.02,SSE,151,0.0,6.0,96,0.00,,,0.01,meteobridge,2013-12-06 03:01:00,
2013-12-05 22:06:00,53.2,52.2,30.02,SSE,151,0.0,2.0,96,0.00,,,0.01,meteobridge,2013-12-06 03:06:00,
2013-12-05 22:11:00,53.2,52.2,30.01,SE,142,2.0,6.0,96,0.00,,,0.01,meteobridge,2013-12-06 03:11:00,
2013-12-05 22:16:00,53.2,52.3,30.01,SSE,165,4.0,4.0,97,0.00,,,0.01,meteobridge,2013-12-06 03:16:00,
2013-12-05 22:22:00,53.2,52.3,30.01,SSE,165,0.0,0.9,97,0.00,,,0.01,meteobridge,2013-12-06 03:22:00,
2013-12-05 22:27:00,53.4,52.5,30.01,SSE,165,2.0,4.9,97,0.00,,,0.01,meteobridge,2013-12-06 03:27:00,
2013-12-05 22:32:00,53.6,52.7,30.01,South,184,0.0,6.0,97,0.00,,,0.01,meteobridge,2013-12-06 03:32:00,
2013-12-05 22:37:00,54.0,53.1,30.01,South,182,2.0,6.0,97,0.00,,,0.01,meteobridge,2013-12-06 03:37:00,
2013-12-05 22:42:00,54.0,53.1,30.00,SE,131,2.0,4.9,97,0.00,,,0.01,meteobridge,2013-12-06 03:42:00,
2013-12-05 22:47:00,54.0,53.1,30.00,SE,131,0.9,4.0,97,0.00,,,0.01,meteobridge,2013-12-06 03:47:00,
2013-12-05 22:52:00,54.1,53.2,30.00,SE,141,2.0,6.0,97,0.00,,,0.01,meteobridge,2013-12-06 03:52:00,
2013-12-05 22:57:00,54.1,53.2,30.01,SSW,198,2.0,4.9,97,0.00,,,0.01,meteobridge,2013-12-06 03:57:00,
2013-12-05 23:02:00,54.3,53.4,30.01,SSW,213,0.9,2.0,97,0.00,,,0.01,meteobridge,2013-12-06 04:02:00,
2013-12-05 23:08:00,54.3,53.4,30.00,South,190,0.9,4.0,97,0.00,,,0.01,meteobridge,2013-12-06 04:08:00,
2013-12-05 23:13:00,54.5,53.6,30.00,South,188,0.0,4.0,97,0.00,,,0.01,meteobridge,2013-12-06 04:13:00,
2013-12-05 23:18:00,54.5,53.6,29.99,South,184,4.9,6.0,97,0.00,,,0.01,meteobridge,2013-12-06 04:18:00,
2013-12-05 23:23:00,54.7,53.8,29.99,ESE,123,0.0,4.0,97,0.00,,,0.01,meteobridge,2013-12-06 04:23:00,
2013-12-05 23:28:00,54.7,53.8,29.99,SSE,153,0.9,6.0,97,0.00,,,0.01,meteobridge,2013-12-06 04:28:00,
2013-12-05 23:33:00,54.7,53.8,29.99,SSE,151,0.9,6.9,97,0.00,,,0.01,meteobridge,2013-12-06 04:33:00,
2013-12-05 23:38:00,54.7,53.8,29.99,South,181,0.9,6.9,97,0.00,,,0.01,meteobridge,2013-12-06 04:38:00,
2013-12-05 23:43:00,54.7,53.8,30.00,SE,128,2.0,4.0,97,0.00,,,0.01,meteobridge,2013-12-06 04:43:00,
2013-12-05 23:48:00,54.7,53.8,30.00,South,169,0.0,2.0,97,0.00,,,0.01,meteobridge,2013-12-06 04:48:00,
2013-12-05 23:54:00,54.9,54.0,30.00,SSW,201,2.0,4.0,97,0.00,,,0.01,meteobridge,2013-12-06 04:54:00,
2013-12-05 23:59:00,54.9,54.0,29.99,SE,144,0.0,4.9,97,0.00,,,0.01,meteobridge,2013-12-06 04:59:00,